sensor_id;sensor_type;location;lat;lon;timestamp;P1;durP1;ratioP1;P2;durP2;ratioP2
11398;SDS011;5755;48.116;11.608;2023-03-01T00:01:54;17.87;;;12.77;;
11398;SDS011;5755;48.116;11.608;2023-03-01T00:04:20;17.50;;;13.43;;
11398;SDS011;5755;48.116;11.608;2023-03-01T00:06:47;19.30;;;13.57;;
11398;SDS011;5755;48.116;11.608;2023-03-01T00:09:14;19.77;;;13.37;;
11398;SDS011;5755;48.116;11.608;2023-03-01T00:11:42;18.80;;;13.87;;
11398;SDS011;5755;48.116;11.608;2023-03-01T00:14:09;20.60;;;13.97;;
11398;SDS011;5755;48.116;11.608;2023-03-01T00:16:36;21.13;;;14.17;;
11398;SDS011;5755;48.116;11.608;2023-03-01T00:19:07;21.10;;;14.40;;
11398;SDS011;5755;48.116;11.608;2023-03-01T00:21:37;20.67;;;13.60;;
11398;SDS011;5755;48.116;11.608;2023-03-01T00:24:05;20.33;;;14.00;;
11398;SDS011;5755;48.116;11.608;2023-03-01T00:26:32;19.30;;;12.67;;
11398;SDS011;5755;48.116;11.608;2023-03-01T00:28:59;22.23;;;14.03;;
11398;SDS011;5755;48.116;11.608;2023-03-01T00:31:27;19.67;;;13.53;;
11398;SDS011;5755;48.116;11.608;2023-03-01T00:33:56;18.40;;;13.37;;
11398;SDS011;5755;48.116;11.608;2023-03-01T00:36:25;17.33;;;12.93;;
11398;SDS011;5755;48.116;11.608;2023-03-01T00:38:53;21.47;;;14.20;;
11398;SDS011;5755;48.116;11.608;2023-03-01T00:41:21;17.60;;;13.23;;
11398;SDS011;5755;48.116;11.608;2023-03-01T00:43:51;19.30;;;13.20;;
11398;SDS011;5755;48.116;11.608;2023-03-01T00:46:19;20.23;;;13.80;;
11398;SDS011;5755;48.116;11.608;2023-03-01T00:48:47;18.87;;;13.63;;
11398;SDS011;5755;48.116;11.608;2023-03-01T00:51:15;20.43;;;14.07;;
11398;SDS011;5755;48.116;11.608;2023-03-01T00:53:45;18.70;;;13.67;;
11398;SDS011;5755;48.116;11.608;2023-03-01T00:56:13;19.97;;;14.00;;
11398;SDS011;5755;48.116;11.608;2023-03-01T00:58:41;21.40;;;13.40;;
11398;SDS011;5755;48.116;11.608;2023-03-01T01:01:08;21.93;;;14.10;;
11398;SDS011;5755;48.116;11.608;2023-03-01T01:03:42;19.60;;;13.40;;
11398;SDS011;5755;48.116;11.608;2023-03-01T01:06:12;17.87;;;13.57;;
11398;SDS011;5755;48.116;11.608;2023-03-01T01:08:40;21.23;;;14.57;;
11398;SDS011;5755;48.116;11.608;2023-03-01T01:11:09;22.17;;;13.97;;
11398;SDS011;5755;48.116;11.608;2023-03-01T01:13:36;19.33;;;13.40;;
11398;SDS011;5755;48.116;11.608;2023-03-01T01:16:04;18.23;;;13.00;;
11398;SDS011;5755;48.116;11.608;2023-03-01T01:18:31;18.53;;;13.57;;
11398;SDS011;5755;48.116;11.608;2023-03-01T01:21:02;20.87;;;14.43;;
11398;SDS011;5755;48.116;11.608;2023-03-01T01:23:30;17.97;;;13.50;;
11398;SDS011;5755;48.116;11.608;2023-03-01T01:26:02;19.03;;;13.77;;
11398;SDS011;5755;48.116;11.608;2023-03-01T01:28:31;21.83;;;14.73;;
11398;SDS011;5755;48.116;11.608;2023-03-01T01:30:58;20.60;;;14.13;;
11398;SDS011;5755;48.116;11.608;2023-03-01T01:33:25;20.90;;;13.60;;
11398;SDS011;5755;48.116;11.608;2023-03-01T01:35:52;17.33;;;13.10;;
11398;SDS011;5755;48.116;11.608;2023-03-01T01:38:19;21.97;;;14.40;;
11398;SDS011;5755;48.116;11.608;2023-03-01T01:40:47;20.00;;;13.70;;
11398;SDS011;5755;48.116;11.608;2023-03-01T01:43:16;18.80;;;13.50;;
11398;SDS011;5755;48.116;11.608;2023-03-01T01:45:47;20.33;;;13.27;;
11398;SDS011;5755;48.116;11.608;2023-03-01T01:48:16;17.93;;;12.87;;
11398;SDS011;5755;48.116;11.608;2023-03-01T01:50:46;20.80;;;13.77;;
11398;SDS011;5755;48.116;11.608;2023-03-01T01:53:21;18.73;;;13.37;;
11398;SDS011;5755;48.116;11.608;2023-03-01T01:55:51;20.77;;;14.13;;
11398;SDS011;5755;48.116;11.608;2023-03-01T01:58:22;21.20;;;14.13;;
11398;SDS011;5755;48.116;11.608;2023-03-01T02:00:51;18.13;;;12.80;;
11398;SDS011;5755;48.116;11.608;2023-03-01T02:03:20;20.50;;;13.73;;
11398;SDS011;5755;48.116;11.608;2023-03-01T02:05:55;21.50;;;13.67;;
11398;SDS011;5755;48.116;11.608;2023-03-01T02:08:27;18.53;;;12.97;;
11398;SDS011;5755;48.116;11.608;2023-03-01T02:10:56;22.30;;;14.40;;
11398;SDS011;5755;48.116;11.608;2023-03-01T02:13:24;18.70;;;13.47;;
11398;SDS011;5755;48.116;11.608;2023-03-01T02:15:53;20.03;;;13.83;;
11398;SDS011;5755;48.116;11.608;2023-03-01T02:18:20;20.03;;;13.50;;
11398;SDS011;5755;48.116;11.608;2023-03-01T02:20:52;19.07;;;13.30;;
11398;SDS011;5755;48.116;11.608;2023-03-01T02:23:28;20.37;;;13.50;;
11398;SDS011;5755;48.116;11.608;2023-03-01T02:25:57;18.47;;;13.37;;
11398;SDS011;5755;48.116;11.608;2023-03-01T02:28:32;17.97;;;13.00;;
11398;SDS011;5755;48.116;11.608;2023-03-01T02:31:01;22.00;;;13.90;;
11398;SDS011;5755;48.116;11.608;2023-03-01T02:33:48;18.63;;;13.17;;
11398;SDS011;5755;48.116;11.608;2023-03-01T02:36:15;21.00;;;13.87;;
11398;SDS011;5755;48.116;11.608;2023-03-01T02:38:45;19.50;;;13.33;;
11398;SDS011;5755;48.116;11.608;2023-03-01T02:41:13;19.50;;;13.53;;
11398;SDS011;5755;48.116;11.608;2023-03-01T02:43:46;20.90;;;13.97;;
11398;SDS011;5755;48.116;11.608;2023-03-01T02:46:14;22.43;;;14.43;;
11398;SDS011;5755;48.116;11.608;2023-03-01T02:48:43;19.80;;;14.27;;
11398;SDS011;5755;48.116;11.608;2023-03-01T02:51:26;18.70;;;12.83;;
11398;SDS011;5755;48.116;11.608;2023-03-01T02:54:06;24.83;;;14.33;;
11398;SDS011;5755;48.116;11.608;2023-03-01T02:56:39;17.47;;;13.53;;
11398;SDS011;5755;48.116;11.608;2023-03-01T02:59:09;19.90;;;13.63;;
11398;SDS011;5755;48.116;11.608;2023-03-01T03:01:37;18.70;;;13.37;;
11398;SDS011;5755;48.116;11.608;2023-03-01T03:04:04;19.97;;;13.50;;
11398;SDS011;5755;48.116;11.608;2023-03-01T03:06:33;20.67;;;13.43;;
11398;SDS011;5755;48.116;11.608;2023-03-01T03:09:01;21.53;;;14.07;;
11398;SDS011;5755;48.116;11.608;2023-03-01T03:11:28;18.53;;;13.30;;
11398;SDS011;5755;48.116;11.608;2023-03-01T03:13:55;19.23;;;13.73;;
11398;SDS011;5755;48.116;11.608;2023-03-01T03:16:24;20.77;;;13.83;;
11398;SDS011;5755;48.116;11.608;2023-03-01T03:18:51;20.43;;;14.10;;
11398;SDS011;5755;48.116;11.608;2023-03-01T03:21:17;20.77;;;14.87;;
11398;SDS011;5755;48.116;11.608;2023-03-01T03:23:44;20.10;;;13.43;;
11398;SDS011;5755;48.116;11.608;2023-03-01T03:26:11;21.33;;;13.97;;
11398;SDS011;5755;48.116;11.608;2023-03-01T03:28:40;20.77;;;13.90;;
11398;SDS011;5755;48.116;11.608;2023-03-01T03:31:07;19.70;;;13.87;;
11398;SDS011;5755;48.116;11.608;2023-03-01T03:33:36;20.43;;;13.37;;
11398;SDS011;5755;48.116;11.608;2023-03-01T03:36:03;18.53;;;13.43;;
11398;SDS011;5755;48.116;11.608;2023-03-01T03:38:30;20.03;;;14.33;;
11398;SDS011;5755;48.116;11.608;2023-03-01T03:41:02;17.77;;;13.50;;
11398;SDS011;5755;48.116;11.608;2023-03-01T03:43:30;22.30;;;14.23;;
11398;SDS011;5755;48.116;11.608;2023-03-01T03:45:58;18.80;;;13.60;;
11398;SDS011;5755;48.116;11.608;2023-03-01T03:48:26;21.27;;;13.60;;
11398;SDS011;5755;48.116;11.608;2023-03-01T03:50:55;20.10;;;13.70;;
11398;SDS011;5755;48.116;11.608;2023-03-01T03:53:23;20.90;;;14.37;;
11398;SDS011;5755;48.116;11.608;2023-03-01T03:55:51;18.63;;;13.87;;
11398;SDS011;5755;48.116;11.608;2023-03-01T03:58:19;23.37;;;13.57;;
11398;SDS011;5755;48.116;11.608;2023-03-01T04:00:48;21.27;;;14.07;;
11398;SDS011;5755;48.116;11.608;2023-03-01T04:03:16;21.10;;;14.27;;
11398;SDS011;5755;48.116;11.608;2023-03-01T04:05:45;24.60;;;14.27;;
11398;SDS011;5755;48.116;11.608;2023-03-01T04:08:14;20.33;;;14.63;;
11398;SDS011;5755;48.116;11.608;2023-03-01T04:10:42;23.47;;;14.37;;
11398;SDS011;5755;48.116;11.608;2023-03-01T04:13:11;19.20;;;13.30;;
11398;SDS011;5755;48.116;11.608;2023-03-01T04:15:39;21.77;;;14.23;;
11398;SDS011;5755;48.116;11.608;2023-03-01T04:18:08;20.47;;;14.63;;
11398;SDS011;5755;48.116;11.608;2023-03-01T04:20:38;20.80;;;14.00;;
11398;SDS011;5755;48.116;11.608;2023-03-01T04:23:05;20.13;;;13.80;;
11398;SDS011;5755;48.116;11.608;2023-03-01T04:25:44;21.27;;;14.30;;
11398;SDS011;5755;48.116;11.608;2023-03-01T04:28:18;24.50;;;14.60;;
11398;SDS011;5755;48.116;11.608;2023-03-01T04:30:45;20.57;;;14.97;;
11398;SDS011;5755;48.116;11.608;2023-03-01T04:33:12;21.80;;;14.27;;
11398;SDS011;5755;48.116;11.608;2023-03-01T04:35:39;21.47;;;14.20;;
11398;SDS011;5755;48.116;11.608;2023-03-01T04:38:06;24.93;;;14.63;;
11398;SDS011;5755;48.116;11.608;2023-03-01T04:40:33;22.80;;;13.93;;
11398;SDS011;5755;48.116;11.608;2023-03-01T04:43:02;19.63;;;14.10;;
11398;SDS011;5755;48.116;11.608;2023-03-01T04:45:31;22.07;;;14.83;;
11398;SDS011;5755;48.116;11.608;2023-03-01T04:47:59;23.87;;;14.47;;
11398;SDS011;5755;48.116;11.608;2023-03-01T04:50:26;20.73;;;14.50;;
11398;SDS011;5755;48.116;11.608;2023-03-01T04:52:53;22.87;;;15.00;;
11398;SDS011;5755;48.116;11.608;2023-03-01T04:55:23;20.47;;;14.17;;
11398;SDS011;5755;48.116;11.608;2023-03-01T04:57:51;20.63;;;14.70;;
11398;SDS011;5755;48.116;11.608;2023-03-01T05:00:20;25.50;;;15.20;;
11398;SDS011;5755;48.116;11.608;2023-03-01T05:02:49;20.73;;;14.47;;
11398;SDS011;5755;48.116;11.608;2023-03-01T05:05:18;20.40;;;14.33;;
11398;SDS011;5755;48.116;11.608;2023-03-01T05:07:50;19.47;;;13.77;;
11398;SDS011;5755;48.116;11.608;2023-03-01T05:10:20;23.07;;;14.20;;
11398;SDS011;5755;48.116;11.608;2023-03-01T05:12:48;21.43;;;14.60;;
11398;SDS011;5755;48.116;11.608;2023-03-01T05:15:17;25.20;;;15.10;;
11398;SDS011;5755;48.116;11.608;2023-03-01T05:17:45;22.13;;;14.73;;
11398;SDS011;5755;48.116;11.608;2023-03-01T05:20:12;20.83;;;14.63;;
11398;SDS011;5755;48.116;11.608;2023-03-01T05:22:39;23.60;;;15.10;;
11398;SDS011;5755;48.116;11.608;2023-03-01T05:25:06;21.10;;;14.33;;
11398;SDS011;5755;48.116;11.608;2023-03-01T05:27:33;22.90;;;14.53;;
11398;SDS011;5755;48.116;11.608;2023-03-01T05:30:00;22.57;;;14.70;;
11398;SDS011;5755;48.116;11.608;2023-03-01T05:32:38;21.97;;;14.47;;
11398;SDS011;5755;48.116;11.608;2023-03-01T05:35:11;21.23;;;14.47;;
11398;SDS011;5755;48.116;11.608;2023-03-01T05:37:40;21.53;;;14.60;;
11398;SDS011;5755;48.116;11.608;2023-03-01T05:40:08;22.33;;;15.17;;
11398;SDS011;5755;48.116;11.608;2023-03-01T05:42:40;23.30;;;14.73;;
11398;SDS011;5755;48.116;11.608;2023-03-01T05:45:09;22.30;;;15.00;;
11398;SDS011;5755;48.116;11.608;2023-03-01T05:47:37;20.47;;;14.37;;
11398;SDS011;5755;48.116;11.608;2023-03-01T05:50:08;23.37;;;15.13;;
11398;SDS011;5755;48.116;11.608;2023-03-01T05:52:39;26.40;;;16.13;;
11398;SDS011;5755;48.116;11.608;2023-03-01T05:55:06;18.37;;;13.67;;
11398;SDS011;5755;48.116;11.608;2023-03-01T05:57:34;23.00;;;14.60;;
11398;SDS011;5755;48.116;11.608;2023-03-01T06:00:01;20.80;;;14.63;;
11398;SDS011;5755;48.116;11.608;2023-03-01T06:02:28;21.37;;;14.77;;
11398;SDS011;5755;48.116;11.608;2023-03-01T06:04:55;19.63;;;14.40;;
11398;SDS011;5755;48.116;11.608;2023-03-01T06:07:23;22.97;;;15.30;;
11398;SDS011;5755;48.116;11.608;2023-03-01T06:09:52;21.27;;;15.37;;
11398;SDS011;5755;48.116;11.608;2023-03-01T06:12:19;23.23;;;14.80;;
11398;SDS011;5755;48.116;11.608;2023-03-01T06:14:46;22.40;;;15.50;;
11398;SDS011;5755;48.116;11.608;2023-03-01T06:17:13;22.70;;;15.70;;
11398;SDS011;5755;48.116;11.608;2023-03-01T06:19:40;23.90;;;14.50;;
11398;SDS011;5755;48.116;11.608;2023-03-01T06:22:07;28.20;;;15.57;;
11398;SDS011;5755;48.116;11.608;2023-03-01T06:24:35;23.37;;;14.93;;
11398;SDS011;5755;48.116;11.608;2023-03-01T06:27:02;23.63;;;15.20;;
11398;SDS011;5755;48.116;11.608;2023-03-01T06:29:29;20.97;;;14.27;;
11398;SDS011;5755;48.116;11.608;2023-03-01T06:31:56;22.60;;;14.87;;
11398;SDS011;5755;48.116;11.608;2023-03-01T06:34:23;24.83;;;16.23;;
11398;SDS011;5755;48.116;11.608;2023-03-01T06:36:50;23.50;;;15.73;;
11398;SDS011;5755;48.116;11.608;2023-03-01T06:39:16;21.17;;;15.47;;
11398;SDS011;5755;48.116;11.608;2023-03-01T06:41:45;21.73;;;14.63;;
11398;SDS011;5755;48.116;11.608;2023-03-01T06:44:11;24.23;;;15.10;;
11398;SDS011;5755;48.116;11.608;2023-03-01T06:46:38;22.87;;;14.57;;
11398;SDS011;5755;48.116;11.608;2023-03-01T06:49:05;20.63;;;15.00;;
11398;SDS011;5755;48.116;11.608;2023-03-01T06:51:34;21.37;;;15.13;;
11398;SDS011;5755;48.116;11.608;2023-03-01T06:54:02;24.47;;;15.77;;
11398;SDS011;5755;48.116;11.608;2023-03-01T06:56:29;23.20;;;15.13;;
11398;SDS011;5755;48.116;11.608;2023-03-01T06:58:57;23.07;;;15.43;;
11398;SDS011;5755;48.116;11.608;2023-03-01T07:01:24;21.80;;;15.30;;
11398;SDS011;5755;48.116;11.608;2023-03-01T07:03:51;23.60;;;16.07;;
11398;SDS011;5755;48.116;11.608;2023-03-01T07:06:18;27.03;;;15.37;;
11398;SDS011;5755;48.116;11.608;2023-03-01T07:08:45;25.90;;;16.10;;
11398;SDS011;5755;48.116;11.608;2023-03-01T07:11:12;25.63;;;15.80;;
11398;SDS011;5755;48.116;11.608;2023-03-01T07:13:39;21.13;;;15.03;;
11398;SDS011;5755;48.116;11.608;2023-03-01T07:16:08;23.67;;;14.70;;
11398;SDS011;5755;48.116;11.608;2023-03-01T07:18:37;25.23;;;15.50;;
11398;SDS011;5755;48.116;11.608;2023-03-01T07:21:04;23.93;;;15.77;;
11398;SDS011;5755;48.116;11.608;2023-03-01T07:23:31;22.70;;;15.47;;
11398;SDS011;5755;48.116;11.608;2023-03-01T07:25:58;24.83;;;16.00;;
11398;SDS011;5755;48.116;11.608;2023-03-01T07:28:25;22.97;;;15.13;;
11398;SDS011;5755;48.116;11.608;2023-03-01T07:30:53;24.43;;;15.57;;
11398;SDS011;5755;48.116;11.608;2023-03-01T07:33:21;22.43;;;14.43;;
11398;SDS011;5755;48.116;11.608;2023-03-01T07:35:55;24.20;;;15.63;;
11398;SDS011;5755;48.116;11.608;2023-03-01T07:38:23;22.63;;;15.53;;
11398;SDS011;5755;48.116;11.608;2023-03-01T07:40:50;21.27;;;15.33;;
11398;SDS011;5755;48.116;11.608;2023-03-01T07:43:17;21.73;;;15.47;;
11398;SDS011;5755;48.116;11.608;2023-03-01T07:45:44;23.00;;;15.83;;
11398;SDS011;5755;48.116;11.608;2023-03-01T07:48:11;25.50;;;16.17;;
11398;SDS011;5755;48.116;11.608;2023-03-01T07:50:39;22.47;;;15.50;;
11398;SDS011;5755;48.116;11.608;2023-03-01T07:53:06;25.17;;;15.87;;
11398;SDS011;5755;48.116;11.608;2023-03-01T07:55:33;27.30;;;16.10;;
11398;SDS011;5755;48.116;11.608;2023-03-01T07:57:59;24.70;;;16.17;;
11398;SDS011;5755;48.116;11.608;2023-03-01T08:13:42;25.67;;;15.17;;
11398;SDS011;5755;48.116;11.608;2023-03-01T08:16:10;24.67;;;16.17;;
11398;SDS011;5755;48.116;11.608;2023-03-01T08:18:38;22.67;;;16.03;;
11398;SDS011;5755;48.116;11.608;2023-03-01T08:21:06;25.13;;;15.77;;
11398;SDS011;5755;48.116;11.608;2023-03-01T08:23:34;23.03;;;15.53;;
11398;SDS011;5755;48.116;11.608;2023-03-01T08:26:05;22.57;;;15.57;;
11398;SDS011;5755;48.116;11.608;2023-03-01T08:28:33;22.63;;;15.57;;
11398;SDS011;5755;48.116;11.608;2023-03-01T08:31:02;23.57;;;15.50;;
11398;SDS011;5755;48.116;11.608;2023-03-01T08:33:29;23.20;;;15.60;;
11398;SDS011;5755;48.116;11.608;2023-03-01T08:36:03;25.37;;;16.23;;
11398;SDS011;5755;48.116;11.608;2023-03-01T08:38:32;24.33;;;15.30;;
11398;SDS011;5755;48.116;11.608;2023-03-01T08:40:59;23.10;;;16.00;;
11398;SDS011;5755;48.116;11.608;2023-03-01T08:43:26;24.77;;;16.40;;
11398;SDS011;5755;48.116;11.608;2023-03-01T08:45:53;22.87;;;15.37;;
11398;SDS011;5755;48.116;11.608;2023-03-01T08:48:21;27.63;;;16.77;;
11398;SDS011;5755;48.116;11.608;2023-03-01T08:50:48;26.07;;;15.93;;
11398;SDS011;5755;48.116;11.608;2023-03-01T08:53:16;24.40;;;15.53;;
11398;SDS011;5755;48.116;11.608;2023-03-01T08:55:43;25.37;;;15.57;;
11398;SDS011;5755;48.116;11.608;2023-03-01T08:58:10;24.60;;;15.63;;
11398;SDS011;5755;48.116;11.608;2023-03-01T09:00:36;23.73;;;15.33;;
11398;SDS011;5755;48.116;11.608;2023-03-01T09:03:05;23.93;;;14.80;;
11398;SDS011;5755;48.116;11.608;2023-03-01T09:05:33;22.90;;;15.60;;
11398;SDS011;5755;48.116;11.608;2023-03-01T09:08:01;24.63;;;15.97;;
11398;SDS011;5755;48.116;11.608;2023-03-01T09:10:29;22.90;;;15.73;;
11398;SDS011;5755;48.116;11.608;2023-03-01T09:12:56;20.77;;;15.30;;
11398;SDS011;5755;48.116;11.608;2023-03-01T09:15:23;25.93;;;16.00;;
11398;SDS011;5755;48.116;11.608;2023-03-01T09:17:49;24.97;;;15.73;;
11398;SDS011;5755;48.116;11.608;2023-03-01T09:20:16;22.23;;;15.60;;
11398;SDS011;5755;48.116;11.608;2023-03-01T09:22:45;21.40;;;15.40;;
11398;SDS011;5755;48.116;11.608;2023-03-01T09:25:12;21.57;;;14.87;;
11398;SDS011;5755;48.116;11.608;2023-03-01T09:27:39;25.27;;;15.67;;
11398;SDS011;5755;48.116;11.608;2023-03-01T09:30:06;25.37;;;15.93;;
11398;SDS011;5755;48.116;11.608;2023-03-01T09:32:34;24.20;;;15.80;;
11398;SDS011;5755;48.116;11.608;2023-03-01T09:35:01;25.07;;;16.37;;
11398;SDS011;5755;48.116;11.608;2023-03-01T09:37:30;23.77;;;16.10;;
11398;SDS011;5755;48.116;11.608;2023-03-01T09:39:59;22.40;;;15.37;;
11398;SDS011;5755;48.116;11.608;2023-03-01T09:42:27;21.53;;;15.17;;
11398;SDS011;5755;48.116;11.608;2023-03-01T09:44:58;22.50;;;15.43;;
11398;SDS011;5755;48.116;11.608;2023-03-01T09:47:28;23.63;;;16.00;;
11398;SDS011;5755;48.116;11.608;2023-03-01T09:49:58;24.33;;;16.53;;
11398;SDS011;5755;48.116;11.608;2023-03-01T09:52:33;24.70;;;15.87;;
11398;SDS011;5755;48.116;11.608;2023-03-01T09:55:09;27.23;;;15.50;;
11398;SDS011;5755;48.116;11.608;2023-03-01T09:57:41;27.90;;;17.37;;
11398;SDS011;5755;48.116;11.608;2023-03-01T10:00:16;26.07;;;16.57;;
11398;SDS011;5755;48.116;11.608;2023-03-01T10:02:56;22.53;;;15.47;;
11398;SDS011;5755;48.116;11.608;2023-03-01T10:05:34;25.33;;;16.03;;
11398;SDS011;5755;48.116;11.608;2023-03-01T10:11:02;24.83;;;16.83;;
11398;SDS011;5755;48.116;11.608;2023-03-01T10:13:33;23.60;;;16.13;;
11398;SDS011;5755;48.116;11.608;2023-03-01T10:16:10;26.33;;;16.47;;
11398;SDS011;5755;48.116;11.608;2023-03-01T10:18:41;22.67;;;15.33;;
11398;SDS011;5755;48.116;11.608;2023-03-01T10:21:13;23.60;;;15.40;;
11398;SDS011;5755;48.116;11.608;2023-03-01T10:23:44;20.80;;;15.13;;
11398;SDS011;5755;48.116;11.608;2023-03-01T10:26:15;21.20;;;15.20;;
11398;SDS011;5755;48.116;11.608;2023-03-01T10:29:01;26.07;;;16.57;;
11398;SDS011;5755;48.116;11.608;2023-03-01T10:31:33;22.87;;;16.83;;
11398;SDS011;5755;48.116;11.608;2023-03-01T10:34:08;23.97;;;16.50;;
11398;SDS011;5755;48.116;11.608;2023-03-01T10:36:38;29.27;;;16.80;;
11398;SDS011;5755;48.116;11.608;2023-03-01T10:39:11;22.63;;;16.33;;
11398;SDS011;5755;48.116;11.608;2023-03-01T10:41:51;26.27;;;16.83;;
11398;SDS011;5755;48.116;11.608;2023-03-01T10:44:36;27.20;;;17.30;;
11398;SDS011;5755;48.116;11.608;2023-03-01T10:47:05;24.63;;;16.80;;
11398;SDS011;5755;48.116;11.608;2023-03-01T10:49:46;23.73;;;16.50;;
11398;SDS011;5755;48.116;11.608;2023-03-01T10:52:20;22.97;;;16.23;;
11398;SDS011;5755;48.116;11.608;2023-03-01T10:54:51;24.77;;;16.00;;
11398;SDS011;5755;48.116;11.608;2023-03-01T10:57:32;23.17;;;16.67;;
11398;SDS011;5755;48.116;11.608;2023-03-01T11:00:20;27.20;;;16.97;;
11398;SDS011;5755;48.116;11.608;2023-03-01T11:02:50;23.10;;;16.13;;
11398;SDS011;5755;48.116;11.608;2023-03-01T11:05:29;23.08;;;16.40;;
11398;SDS011;5755;48.116;11.608;2023-03-01T11:07:59;22.45;;;16.65;;
11398;SDS011;5755;48.116;11.608;2023-03-01T11:10:28;22.67;;;17.08;;
11398;SDS011;5755;48.116;11.608;2023-03-01T11:13:06;25.63;;;17.00;;
11398;SDS011;5755;48.116;11.608;2023-03-01T11:15:35;21.65;;;17.02;;
11398;SDS011;5755;48.116;11.608;2023-03-01T11:18:02;21.27;;;16.33;;
11398;SDS011;5755;48.116;11.608;2023-03-01T11:20:29;20.13;;;16.40;;
11398;SDS011;5755;48.116;11.608;2023-03-01T11:22:59;23.17;;;16.65;;
11398;SDS011;5755;48.116;11.608;2023-03-01T11:25:32;20.58;;;16.25;;
11398;SDS011;5755;48.116;11.608;2023-03-01T11:28:03;24.42;;;17.50;;
11398;SDS011;5755;48.116;11.608;2023-03-01T11:30:34;24.67;;;18.08;;
11398;SDS011;5755;48.116;11.608;2023-03-01T11:33:11;22.67;;;17.27;;
11398;SDS011;5755;48.116;11.608;2023-03-01T11:35:45;21.92;;;17.40;;
11398;SDS011;5755;48.116;11.608;2023-03-01T11:38:18;23.60;;;17.60;;
11398;SDS011;5755;48.116;11.608;2023-03-01T11:40:49;23.50;;;18.17;;
11398;SDS011;5755;48.116;11.608;2023-03-01T11:43:20;21.67;;;16.97;;
11398;SDS011;5755;48.116;11.608;2023-03-01T11:48:53;20.57;;;15.87;;
11398;SDS011;5755;48.116;11.608;2023-03-01T11:51:33;22.27;;;17.33;;
11398;SDS011;5755;48.116;11.608;2023-03-01T11:54:18;23.87;;;16.80;;
11398;SDS011;5755;48.116;11.608;2023-03-01T11:56:55;23.63;;;17.90;;
11398;SDS011;5755;48.116;11.608;2023-03-01T12:02:37;26.87;;;17.33;;
11398;SDS011;5755;48.116;11.608;2023-03-01T12:05:20;24.53;;;17.07;;
11398;SDS011;5755;48.116;11.608;2023-03-01T12:07:58;24.63;;;17.77;;
11398;SDS011;5755;48.116;11.608;2023-03-01T12:10:33;25.67;;;17.70;;
11398;SDS011;5755;48.116;11.608;2023-03-01T12:13:15;25.17;;;17.43;;
11398;SDS011;5755;48.116;11.608;2023-03-01T12:15:58;24.40;;;17.90;;
11398;SDS011;5755;48.116;11.608;2023-03-01T12:18:46;24.70;;;17.30;;
11398;SDS011;5755;48.116;11.608;2023-03-01T12:21:46;24.27;;;17.37;;
11398;SDS011;5755;48.116;11.608;2023-03-01T12:24:39;23.20;;;17.13;;
11398;SDS011;5755;48.116;11.608;2023-03-01T12:30:23;24.33;;;17.00;;
11398;SDS011;5755;48.116;11.608;2023-03-01T12:33:01;22.40;;;17.10;;
11398;SDS011;5755;48.116;11.608;2023-03-01T12:35:47;24.17;;;17.60;;
11398;SDS011;5755;48.116;11.608;2023-03-01T12:38:41;23.43;;;17.70;;
11398;SDS011;5755;48.116;11.608;2023-03-01T12:41:16;24.15;;;17.10;;
11398;SDS011;5755;48.116;11.608;2023-03-01T12:44:07;26.83;;;17.43;;
11398;SDS011;5755;48.116;11.608;2023-03-01T12:46:45;24.60;;;17.90;;
11398;SDS011;5755;48.116;11.608;2023-03-01T12:49:21;24.60;;;17.70;;
11398;SDS011;5755;48.116;11.608;2023-03-01T12:51:57;22.83;;;16.33;;
11398;SDS011;5755;48.116;11.608;2023-03-01T12:54:28;23.60;;;17.13;;
11398;SDS011;5755;48.116;11.608;2023-03-01T12:56:59;24.27;;;17.63;;
11398;SDS011;5755;48.116;11.608;2023-03-01T12:59:36;24.87;;;18.33;;
11398;SDS011;5755;48.116;11.608;2023-03-01T13:02:10;24.10;;;17.60;;
11398;SDS011;5755;48.116;11.608;2023-03-01T13:04:51;31.13;;;19.37;;
11398;SDS011;5755;48.116;11.608;2023-03-01T13:07:30;22.30;;;16.67;;
11398;SDS011;5755;48.116;11.608;2023-03-01T13:10:16;23.50;;;17.30;;
11398;SDS011;5755;48.116;11.608;2023-03-01T13:12:52;26.77;;;17.20;;
11398;SDS011;5755;48.116;11.608;2023-03-01T13:15:31;26.60;;;17.90;;
11398;SDS011;5755;48.116;11.608;2023-03-01T13:18:00;26.93;;;18.00;;
11398;SDS011;5755;48.116;11.608;2023-03-01T13:20:30;24.27;;;17.50;;
11398;SDS011;5755;48.116;11.608;2023-03-01T13:23:04;25.73;;;17.80;;
11398;SDS011;5755;48.116;11.608;2023-03-01T13:25:34;23.67;;;17.50;;
11398;SDS011;5755;48.116;11.608;2023-03-01T13:37:27;24.15;;;17.90;;
11398;SDS011;5755;48.116;11.608;2023-03-01T13:39:58;28.27;;;18.67;;
11398;SDS011;5755;48.116;11.608;2023-03-01T13:42:34;22.38;;;17.10;;
11398;SDS011;5755;48.116;11.608;2023-03-01T13:45:04;25.37;;;17.80;;
11398;SDS011;5755;48.116;11.608;2023-03-01T13:47:41;22.47;;;16.67;;
11398;SDS011;5755;48.116;11.608;2023-03-01T13:50:16;22.98;;;17.10;;
11398;SDS011;5755;48.116;11.608;2023-03-01T13:52:48;23.80;;;17.73;;
11398;SDS011;5755;48.116;11.608;2023-03-01T13:55:21;24.80;;;17.90;;
11398;SDS011;5755;48.116;11.608;2023-03-01T13:57:53;27.43;;;18.30;;
11398;SDS011;5755;48.116;11.608;2023-03-01T14:00:27;25.93;;;17.53;;
11398;SDS011;5755;48.116;11.608;2023-03-01T14:03:08;25.70;;;17.77;;
11398;SDS011;5755;48.116;11.608;2023-03-01T14:05:37;25.90;;;17.35;;
11398;SDS011;5755;48.116;11.608;2023-03-01T14:08:05;28.75;;;18.40;;
11398;SDS011;5755;48.116;11.608;2023-03-01T14:10:50;26.52;;;17.95;;
11398;SDS011;5755;48.116;11.608;2023-03-01T14:13:26;28.30;;;18.67;;
11398;SDS011;5755;48.116;11.608;2023-03-01T14:16:08;29.63;;;18.13;;
11398;SDS011;5755;48.116;11.608;2023-03-01T14:18:46;25.37;;;18.37;;
11398;SDS011;5755;48.116;11.608;2023-03-01T14:21:17;26.37;;;17.87;;
11398;SDS011;5755;48.116;11.608;2023-03-01T14:23:44;25.83;;;17.73;;
11398;SDS011;5755;48.116;11.608;2023-03-01T14:26:14;23.73;;;18.23;;
11398;SDS011;5755;48.116;11.608;2023-03-01T14:28:47;23.55;;;17.92;;
11398;SDS011;5755;48.116;11.608;2023-03-01T14:31:29;27.45;;;17.15;;
11398;SDS011;5755;48.116;11.608;2023-03-01T14:34:00;23.70;;;17.58;;
11398;SDS011;5755;48.116;11.608;2023-03-01T14:36:27;23.15;;;17.08;;
11398;SDS011;5755;48.116;11.608;2023-03-01T14:38:56;25.92;;;17.50;;
11398;SDS011;5755;48.116;11.608;2023-03-01T14:41:32;26.05;;;17.77;;
11398;SDS011;5755;48.116;11.608;2023-03-01T14:44:01;23.07;;;16.97;;
11398;SDS011;5755;48.116;11.608;2023-03-01T14:46:32;22.67;;;17.50;;
11398;SDS011;5755;48.116;11.608;2023-03-01T14:49:02;23.47;;;16.63;;
11398;SDS011;5755;48.116;11.608;2023-03-01T14:51:34;29.25;;;17.55;;
11398;SDS011;5755;48.116;11.608;2023-03-01T14:54:03;25.85;;;16.70;;
11398;SDS011;5755;48.116;11.608;2023-03-01T14:56:44;22.60;;;16.67;;
11398;SDS011;5755;48.116;11.608;2023-03-01T14:59:12;22.25;;;15.80;;
11398;SDS011;5755;48.116;11.608;2023-03-01T15:01:39;25.23;;;16.48;;
11398;SDS011;5755;48.116;11.608;2023-03-01T15:04:09;25.83;;;16.88;;
11398;SDS011;5755;48.116;11.608;2023-03-01T15:06:39;24.27;;;17.00;;
11398;SDS011;5755;48.116;11.608;2023-03-01T15:09:07;22.40;;;15.80;;
11398;SDS011;5755;48.116;11.608;2023-03-01T15:11:40;21.48;;;15.68;;
11398;SDS011;5755;48.116;11.608;2023-03-01T15:17:19;22.83;;;16.20;;
11398;SDS011;5755;48.116;11.608;2023-03-01T15:19:53;24.80;;;15.88;;